Time;durP1;ratioP1;P1;durP2;ratioP2;P2;SDS_P1;SDS_P2;PMS_P1;PMS_P2;Temp;Humidity;BMP_temperature;BMP_pressure;BME280_temperature;BME280_humidity;BME280_pressure;Samples;Min_cycle;Max_cycle;Signal;HPM_P1;HPM_P2
2021/07/30 00:01:04;;;;;;;5.63;2.60;;;;;;;22.34;48.60;100995.63;5012371;28;20348;-58
2021/07/30 00:03:32;;;;;;;5.85;3.00;;;;;;;22.37;48.45;101001.47;5012834;28;20271;-58
2021/07/30 00:05:57;;;;;;;5.32;2.67;;;;;;;22.35;48.76;100995.47;5013139;28;20446;-58
2021/07/30 00:08:23;;;;;;;6.82;3.20;;;;;;;22.36;48.72;101006.94;5012053;28;20033;-57
2021/07/30 00:10:49;;;;;;;5.50;2.95;;;;;;;22.33;48.87;100997.44;5013527;28;20030;-59
2021/07/30 00:13:14;;;;;;;6.43;2.67;;;;;;;22.35;48.52;100998.13;5013681;28;20060;-58
2021/07/30 00:15:40;;;;;;;6.30;2.60;;;;;;;22.34;48.75;100998.28;5013261;28;20048;-58
2021/07/30 00:18:05;;;;;;;5.10;2.58;;;;;;;22.34;48.48;100992.97;5013996;28;20393;-58
2021/07/30 00:20:31;;;;;;;5.65;2.90;;;;;;;22.34;48.71;100991.13;5012200;28;20037;-59
2021/07/30 00:22:56;;;;;;;6.13;3.10;;;;;;;22.32;48.48;100986.94;5012975;28;20097;-58
2021/07/30 00:25:25;;;;;;;5.15;2.92;;;;;;;22.32;48.58;100985.16;5013809;28;20021;-57
2021/07/30 00:27:53;;;;;;;6.65;3.00;;;;;;;22.29;48.63;100977.44;5013868;28;20096;-57
2021/07/30 00:30:18;;;;;;;5.60;3.05;;;;;;;22.32;48.84;100979.84;5013061;28;20045;-57
2021/07/30 00:32:43;;;;;;;5.80;2.80;;;;;;;22.31;48.72;100985.31;5013816;28;20462;-56
2021/07/30 00:35:09;;;;;;;4.73;2.63;;;;;;;22.31;48.75;100987.97;5013172;28;20121;-57
2021/07/30 00:37:37;;;;;;;4.82;2.60;;;;;;;22.29;48.71;100977.44;5012306;28;20271;-58
2021/07/30 00:40:03;;;;;;;7.07;3.13;;;;;;;22.29;48.61;100974.81;5012789;28;20112;-59
2021/07/30 00:42:31;;;;;;;4.40;2.42;;;;;;;22.28;48.42;100981.91;5011563;28;20371;-57
2021/07/30 00:45:06;;;;;;;6.43;4.00;;;;;;;22.28;48.70;100981.91;5012855;28;20028;-57
2021/07/30 00:47:31;;;;;;;5.22;3.25;;;;;;;22.28;48.40;100979.25;5012285;28;20030;-58
2021/07/30 00:49:58;;;;;;;6.97;2.97;;;;;;;22.28;48.48;100978.44;5011752;28;20022;-58
2021/07/30 00:52:28;;;;;;;4.97;2.58;;;;;;;22.27;48.31;100969.63;5011887;28;20045;-57
2021/07/30 00:54:55;;;;;;;5.38;2.60;;;;;;;22.26;48.57;100978.56;5012303;28;20492;-57
2021/07/30 00:57:21;;;;;;;5.18;2.88;;;;;;;22.26;48.42;100975.09;5011482;28;20082;-57
2021/07/30 00:59:46;;;;;;;5.18;3.00;;;;;;;22.26;48.44;100969.78;5012173;28;20046;-58
2021/07/30 01:02:14;;;;;;;6.43;3.17;;;;;;;22.24;48.33;100971.75;5012307;28;20030;-58
2021/07/30 01:04:40;;;;;;;5.82;2.83;;;;;;;22.22;48.39;100974.56;5011246;28;20266;-57
2021/07/30 01:07:05;;;;;;;6.35;3.22;;;;;;;22.24;48.47;100980.56;5012200;28;20413;-58
2021/07/30 01:09:30;;;;;;;5.40;3.05;;;;;;;22.22;48.70;100979.03;5012137;28;20025;-58
2021/07/30 01:11:56;;;;;;;5.53;3.08;;;;;;;22.23;48.64;100970.91;5011665;28;20046;-58
2021/07/30 01:14:24;;;;;;;7.38;3.28;;;;;;;22.23;48.50;100975.38;5011937;28;20026;-58
2021/07/30 01:16:50;;;;;;;7.28;3.00;;;;;;;22.23;48.52;100975.38;5012294;28;20026;-58
2021/07/30 01:19:23;;;;;;;5.40;2.93;;;;;;;22.22;48.32;100973.72;5010924;28;20327;-57
2021/07/30 01:21:50;;;;;;;5.88;2.72;;;;;;;22.21;48.47;100974.72;5012291;28;20263;-57
2021/07/30 01:24:16;;;;;;;5.93;2.70;;;;;;;22.22;48.38;100976.38;5011976;28;20029;-58
2021/07/30 01:26:42;;;;;;;6.10;2.90;;;;;;;22.21;48.43;100978.19;5011213;28;20030;-58
2021/07/30 01:29:10;;;;;;;5.70;2.75;;;;;;;22.21;48.61;100980.03;5010722;28;20363;-58
2021/07/30 01:31:35;;;;;;;7.00;2.70;;;;;;;22.21;48.16;100978.19;5012297;28;20020;-58
2021/07/30 01:34:00;;;;;;;4.35;2.42;;;;;;;22.21;48.41;100977.38;5015925;28;20038;-58
2021/07/30 01:36:28;;;;;;;6.20;2.60;;;;;;;22.20;48.02;100978.34;5015880;28;20032;-58
2021/07/30 01:38:54;;;;;;;6.82;3.00;;;;;;;22.19;48.39;100976.66;5015360;28;20397;-58
2021/07/30 01:41:19;;;;;;;5.35;3.03;;;;;;;22.20;48.58;100971.19;5015518;28;20111;-57
2021/07/30 01:43:44;;;;;;;5.38;2.80;;;;;;;22.17;48.59;100971.50;5015870;28;20041;-58
2021/07/30 01:46:10;;;;;;;5.33;2.60;;;;;;;22.20;48.49;100970.38;5014801;28;20022;-58
2021/07/30 01:48:36;;;;;;;4.78;2.72;;;;;;;22.17;48.39;100968.00;5015369;28;20279;-58
2021/07/30 01:51:02;;;;;;;6.45;2.88;;;;;;;22.18;48.33;100967.03;5015862;28;20442;-58
2021/07/30 01:53:27;;;;;;;4.18;2.53;;;;;;;22.16;48.50;100959.22;5014370;28;20050;-58
2021/07/30 01:55:53;;;;;;;5.33;2.97;;;;;;;22.18;48.31;100959.09;5015641;28;20504;-58
2021/07/30 01:58:19;;;;;;;6.70;2.92;;;;;;;22.17;48.38;100954.75;5015441;28;20271;-58
2021/07/30 02:00:44;;;;;;;6.85;2.70;;;;;;;22.14;48.47;100953.22;5014619;28;20036;-58
2021/07/30 02:03:15;;;;;;;5.20;2.43;;;;;;;22.16;48.21;100953.91;5015463;28;20029;-58
2021/07/30 02:05:41;;;;;;;5.05;2.97;;;;;;;22.16;48.50;100953.06;5015580;28;20271;-58
2021/07/30 02:08:06;;;;;;;5.38;2.83;;;;;;;22.16;48.23;100953.06;5014708;28;20053;-58
2021/07/30 02:10:32;;;;;;;5.75;2.90;;;;;;;22.14;48.43;100955.03;5014745;28;20125;-59
2021/07/30 02:15:42;;;;;;;6.50;2.70;;;;;;;22.14;48.47;100955.03;5014610;28;20168;-57
2021/07/30 02:18:07;;;;;;;6.20;2.70;;;;;;;22.13;48.37;100962.19;5015482;28;20482;-58
2021/07/30 02:20:36;;;;;;;4.80;2.80;;;;;;;22.14;48.36;100958.53;5014986;28;20049;-57
2021/07/30 02:23:01;;;;;;;5.85;2.65;;;;;;;22.12;48.54;100949.88;5014503;28;20021;-57
2021/07/30 02:25:26;;;;;;;5.07;2.85;;;;;;;22.09;48.16;100945.69;5014750;28;20026;-58
2021/07/30 02:27:52;;;;;;;5.43;2.75;;;;;;;22.07;48.54;100937.06;5014360;28;20407;-56
2021/07/30 02:30:17;;;;;;;6.63;3.00;;;;;;;22.12;48.25;100943.75;5014848;28;20336;-58
2021/07/30 02:32:57;;;;;;;5.10;2.90;;;;;;;22.12;48.24;100949.88;5015026;28;20263;-58
2021/07/30 02:35:23;;;;;;;4.22;2.58;;;;;;;22.10;48.25;100938.59;5013836;28;20021;-58
2021/07/30 02:37:48;;;;;;;5.05;2.50;;;;;;;22.10;48.29;100942.06;5014786;28;20026;-57
2021/07/30 02:40:14;;;;;;;6.38;2.42;;;;;;;22.09;48.33;100937.72;5014801;28;20342;-58
2021/07/30 02:42:39;;;;;;;4.57;2.50;;;;;;;22.09;48.42;100931.59;5013101;28;20065;-58
2021/07/30 02:45:05;;;;;;;6.00;2.60;;;;;;;22.07;48.41;100937.06;5014583;28;20109;-57
2021/07/30 02:47:30;;;;;;;5.53;2.67;;;;;;;22.08;48.26;100938.72;5014383;28;20275;-57
2021/07/30 02:49:56;;;;;;;5.40;2.63;;;;;;;22.06;48.22;100942.50;5014250;28;20065;-58
2021/07/30 02:52:24;;;;;;;5.13;3.00;;;;;;;22.07;48.14;100931.75;5013993;28;20294;-58
2021/07/30 02:54:49;;;;;;;5.13;2.63;;;;;;;22.07;48.51;100936.22;5014344;28;20739;-59
2021/07/30 02:57:17;;;;;;;5.03;2.70;;;;;;;22.07;48.41;100923.78;5013301;28;20048;-57
2021/07/30 02:59:42;;;;;;;6.57;2.67;;;;;;;22.08;48.21;100929.94;5014357;28;20065;-58
2021/07/30 03:02:07;;;;;;;6.53;2.70;;;;;;;22.05;48.50;100924.94;5014499;28;20064;-57
2021/07/30 03:04:35;;;;;;;6.03;3.13;;;;;;;22.06;48.21;100924.78;5013383;28;20153;-57
2021/07/30 03:07:01;;;;;;;6.72;2.85;;;;;;;22.04;48.64;100913.47;5014378;28;20022;-58
2021/07/30 03:09:26;;;;;;;6.07;2.57;;;;;;;22.04;48.52;100915.28;5014053;28;20393;-58
2021/07/30 03:11:54;;;;;;;5.68;2.85;;;;;;;22.06;48.49;100913.31;5013474;28;20349;-58
2021/07/30 03:14:19;;;;;;;5.53;2.80;;;;;;;22.05;48.62;100909.00;5014046;28;20036;-58
2021/07/30 03:16:47;;;;;;;4.70;2.65;;;;;;;22.04;48.00;100912.63;5014279;28;20022;-58
2021/07/30 03:19:13;;;;;;;4.65;2.70;;;;;;;22.03;48.31;100903.84;5013146;28;20037;-58
2021/07/30 03:21:39;;;;;;;6.00;2.90;;;;;;;22.03;48.24;100901.19;5013948;28;20133;-58
2021/07/30 03:24:07;;;;;;;5.45;2.80;;;;;;;22.03;48.39;100901.19;5013170;28;20755;-58
2021/07/30 03:26:41;;;;;;;5.57;2.90;;;;;;;22.05;48.31;100901.06;5013794;28;20025;-58
2021/07/30 03:29:06;;;;;;;5.40;2.85;;;;;;;22.03;48.49;100895.88;5014017;28;20032;-58
2021/07/30 03:31:31;;;;;;;5.25;2.83;;;;;;;22.03;48.36;100897.69;5012693;28;20029;-58
2021/07/30 03:33:56;;;;;;;4.00;2.30;;;;;;;22.02;48.65;100902.16;5013720;28;20030;-58
2021/07/30 03:36:22;;;;;;;6.38;2.70;;;;;;;22.01;48.60;100895.19;5013427;28;20617;-58
2021/07/30 03:38:47;;;;;;;6.07;2.80;;;;;;;22.02;48.50;100899.53;5012986;28;20025;-57
2021/07/30 03:41:13;;;;;;;5.88;2.92;;;;;;;22.02;48.72;100902.16;5013376;28;20309;-57
2021/07/30 03:43:38;;;;;;;6.07;2.70;;;;;;;22.01;48.18;100886.41;5013482;28;20030;-59
2021/07/30 03:46:03;;;;;;;6.43;2.63;;;;;;;22.00;48.29;100882.91;5011992;28;20037;-58
2021/07/30 03:48:29;;;;;;;6.43;3.40;;;;;;;21.99;48.32;100883.91;5013263;28;20421;-58
2021/07/30 03:50:54;;;;;;;5.07;3.22;;;;;;;22.01;48.31;100891.72;5013283;28;20409;-58
2021/07/30 03:53:19;;;;;;;6.17;2.50;;;;;;;22.00;48.49;100892.69;5011896;28;20367;-57
2021/07/30 03:55:44;;;;;;;6.23;2.90;;;;;;;21.99;48.47;100888.38;5013079;28;20625;-58
2021/07/30 03:58:09;;;;;;;5.37;2.70;;;;;;;21.99;48.56;100888.38;5013071;28;20057;-57
2021/07/30 04:00:38;;;;;;;6.03;2.65;;;;;;;21.99;48.26;100889.19;5011026;28;20351;-58
2021/07/30 04:03:03;;;;;;;5.88;2.90;;;;;;;21.96;48.55;100878.88;5012665;28;20493;-58
2021/07/30 04:05:28;;;;;;;6.00;2.70;;;;;;;21.98;48.42;100881.38;5012687;28;20052;-58
2021/07/30 04:07:54;;;;;;;6.38;2.80;;;;;;;21.97;48.57;100885.88;5012218;28;20488;-58
2021/07/30 04:10:19;;;;;;;5.63;2.63;;;;;;;21.90;48.25;100869.72;5013051;28;20101;-58
2021/07/30 04:12:46;;;;;;;4.93;2.70;;;;;;;21.96;48.48;100886.84;5012851;28;20105;-58
2021/07/30 04:15:11;;;;;;;6.03;2.78;;;;;;;21.96;48.67;100886.84;5012146;28;20183;-57
2021/07/30 04:17:37;;;;;;;4.90;2.70;;;;;;;21.94;48.33;100878.22;5012701;28;20038;-58
2021/07/30 04:20:02;;;;;;;5.85;3.22;;;;;;;21.95;48.62;100882.50;5013029;28;20038;-57
2021/07/30 04:22:28;;;;;;;6.20;3.20;;;;;;;21.96;48.32;100883.38;5011823;28;20482;-58
2021/07/30 04:24:54;;;;;;;6.03;2.90;;;;;;;21.95;48.38;100885.16;5013038;28;20033;-58
2021/07/30 04:27:19;;;;;;;6.15;2.83;;;;;;;21.96;48.49;100888.66;5011917;28;20029;-58
2021/07/30 04:29:44;;;;;;;6.05;2.83;;;;;;;21.96;48.62;100875.41;5012953;28;20088;-58
2021/07/30 04:32:10;;;;;;;6.38;3.30;;;;;;;21.93;48.48;100877.34;5012728;28;20033;-57
2021/07/30 04:34:40;;;;;;;6.68;3.10;;;;;;;21.95;48.54;100869.25;5011689;28;20064;-58
2021/07/30 04:37:06;;;;;;;5.57;3.22;;;;;;;21.96;48.49;100870.09;5012364;28;20033;-58
2021/07/30 04:39:32;;;;;;;6.28;2.60;;;;;;;21.93;48.39;100866.72;5012303;28;20113;-58
2021/07/30 04:41:57;;;;;;;6.07;2.70;;;;;;;21.95;48.55;100869.25;5011890;28;20097;-59
2021/07/30 04:44:22;;;;;;;5.85;2.70;;;;;;;21.95;48.31;100871.06;5012156;28;20033;-58
2021/07/30 04:46:48;;;;;;;5.35;2.67;;;;;;;21.94;48.62;100867.59;5012449;28;20029;-57
2021/07/30 04:49:16;;;;;;;5.70;2.80;;;;;;;21.94;48.59;100867.59;5011700;28;20026;-59
2021/07/30 04:51:41;;;;;;;5.22;2.80;;;;;;;21.95;48.65;100866.59;5012150;28;20038;-58
2021/07/30 04:54:07;;;;;;;5.37;2.90;;;;;;;21.94;48.87;100862.28;5012715;28;20032;-59
2021/07/30 04:56:32;;;;;;;4.70;2.50;;;;;;;21.94;48.55;100870.25;5011340;28;20813;-58
2021/07/30 04:58:58;;;;;;;5.70;3.10;;;;;;;21.94;48.46;100864.94;5012563;28;20109;-58
2021/07/30 05:01:24;;;;;;;5.40;2.45;;;;;;;21.94;48.67;100862.28;5011804;28;20287;-58
2021/07/30 05:03:49;;;;;;;6.13;2.90;;;;;;;21.92;48.40;100858.94;5011445;28;20371;-59
2021/07/30 05:06:18;;;;;;;5.50;2.90;;;;;;;21.94;48.54;100862.28;5014289;28;20076;-58
2021/07/30 05:08:44;;;;;;;5.85;3.05;;;;;;;21.94;48.42;100854.31;5018900;28;20029;-57
2021/07/30 05:11:12;;;;;;;4.72;2.70;;;;;;;21.93;48.89;100863.25;5017986;28;20018;-58
2021/07/30 05:13:39;;;;;;;6.53;2.70;;;;;;;21.93;48.55;100861.44;5018595;28;20040;-57
2021/07/30 05:16:12;;;;;;;4.97;2.70;;;;;;;21.93;48.88;100850.81;5018730;28;20026;-57
2021/07/30 05:18:37;;;;;;;6.32;2.90;;;;;;;21.94;48.67;100856.97;5017764;28;20026;-58
2021/07/30 05:21:05;;;;;;;6.80;2.75;;;;;;;21.93;48.66;100840.19;5018618;28;20103;-58
2021/07/30 05:23:30;;;;;;;4.90;2.92;;;;;;;21.94;48.67;100854.31;5017343;28;20034;-57
2021/07/30 05:25:56;;;;;;;4.53;2.35;;;;;;;21.94;48.77;100846.38;5018965;28;20071;-57
2021/07/30 05:28:21;;;;;;;5.60;2.80;;;;;;;21.93;48.70;100845.50;5018647;28;20057;-59
2021/07/30 05:30:46;;;;;;;5.97;2.70;;;;;;;21.92;48.87;100848.31;5017779;28;20398;-58
2021/07/30 05:33:15;;;;;;;5.77;2.73;;;;;;;21.94;48.65;100841.06;5018644;28;20037;-58
2021/07/30 05:35:40;;;;;;;6.07;2.50;;;;;;;21.92;48.99;100833.25;5018631;28;20267;-58
2021/07/30 05:38:05;;;;;;;6.37;3.13;;;;;;;21.91;48.79;100834.22;5017867;28;20033;-57
2021/07/30 05:40:33;;;;;;;4.73;2.57;;;;;;;21.93;48.76;100839.38;5018111;28;20325;-57
2021/07/30 05:42:58;;;;;;;4.88;2.50;;;;;;;21.94;49.01;100835.75;5018609;28;20279;-58
2021/07/30 05:45:24;;;;;;;4.60;2.60;;;;;;;21.90;48.65;100829.06;5017367;28;20032;-57
2021/07/30 05:47:49;;;;;;;6.63;2.67;;;;;;;21.92;48.73;100835.91;5018400;28;20030;-57
2021/07/30 05:50:15;;;;;;;5.60;3.10;;;;;;;21.94;48.83;100830.44;5017759;28;20061;-61
2021/07/30 05:52:43;;;;;;;6.82;2.90;;;;;;;21.95;48.97;100825.97;5017283;28;20295;-58
2021/07/30 05:55:12;;;;;;;4.95;2.60;;;;;;;21.94;48.98;100827.78;5018462;28;20033;-58
2021/07/30 05:57:37;;;;;;;6.45;2.70;;;;;;;21.91;49.12;100828.09;5018076;28;20018;-58
2021/07/30 06:00:04;;;;;;;6.05;3.00;;;;;;;21.94;48.97;100830.44;5017508;28;20101;-58
2021/07/30 06:02:31;;;;;;;6.93;2.75;;;;;;;21.95;49.30;100829.44;5017935;28;20049;-58
2021/07/30 06:04:56;;;;;;;5.00;2.47;;;;;;;21.96;49.14;100825.81;5018426;28;20377;-58
2021/07/30 06:07:21;;;;;;;8.43;2.63;;;;;;;21.98;49.34;100823.84;5017324;28;20330;-57
2021/07/30 06:09:46;;;;;;;4.95;2.53;;;;;;;21.96;49.43;100811.72;5018400;28;20057;-57
2021/07/30 06:12:12;;;;;;;6.80;2.50;;;;;;;21.99;49.74;100825.53;5018311;28;20030;-58
2021/07/30 06:14:37;;;;;;;6.07;2.60;;;;;;;22.01;49.97;100817.41;5017085;28;20283;-59
2021/07/30 06:17:03;;;;;;;6.65;2.60;;;;;;;21.96;50.08;100809.91;5017261;28;20362;-58
2021/07/30 06:19:28;;;;;;;6.18;2.78;;;;;;;22.03;50.15;100821.59;5013884;28;20099;-57
2021/07/30 06:21:57;;;;;;;5.85;2.78;;;;;;;22.04;50.26;100822.41;5014413;28;20038;-57
2021/07/30 06:24:23;;;;;;;5.25;2.80;;;;;;;22.04;50.28;100814.47;5014506;28;20470;-59
2021/07/30 06:26:48;;;;;;;5.10;2.60;;;;;;;22.06;50.17;100815.13;5014531;28;20029;-59
2021/07/30 06:29:14;;;;;;;4.63;2.30;;;;;;;22.07;50.24;100822.13;5014905;28;20041;-57
2021/07/30 06:31:41;;;;;;;5.53;2.60;;;;;;;22.00;50.42;100802.47;5014862;28;20287;-59
2021/07/30 06:34:06;;;;;;;5.07;2.40;;;;;;;22.07;50.62;100814.16;4962172;28;20081;-59
2021/07/30 06:36:32;;;;;;;5.55;2.40;;;;;;;22.09;50.60;100817.47;5014755;28;20057;-58
2021/07/30 06:38:57;;;;;;;5.45;2.88;;;;;;;22.08;50.41;100821.97;5014966;28;20044;-57
2021/07/30 06:41:22;;;;;;;5.25;2.60;;;;;;;22.09;50.31;100820.97;5013639;28;20433;-59
2021/07/30 06:43:48;;;;;;;4.80;2.90;;;;;;;22.09;50.53;100810.34;5014816;28;20114;-58
2021/07/30 06:46:13;;;;;;;5.45;2.58;;;;;;;22.10;50.65;100811.19;5014578;28;20022;-57
2021/07/30 06:48:45;;;;;;;4.93;2.22;;;;;;;22.10;50.36;100808.53;5013464;28;20025;-59
2021/07/30 06:51:11;;;;;;;5.55;2.75;;;;;;;22.08;50.61;100808.69;5014652;28;20040;-58
2021/07/30 06:53:37;;;;;;;5.63;2.58;;;;;;;22.11;50.77;100802.22;5014311;28;20085;-57
2021/07/30 06:56:12;;;;;;;6.00;2.63;;;;;;;22.12;50.80;100795.94;5014025;28;20030;-58
2021/07/30 06:58:37;;;;;;;6.93;2.70;;;;;;;22.13;50.76;100791.47;5014192;28;20116;-59
2021/07/30 07:01:06;;;;;;;5.80;2.40;;;;;;;22.14;50.84;100793.16;5014258;28;20070;-58
2021/07/30 07:03:32;;;;;;;6.65;2.80;;;;;;;22.13;50.67;100783.50;5013490;28;20021;-58
2021/07/30 07:05:57;;;;;;;6.32;2.63;;;;;;;22.15;50.85;100792.16;5014198;28;20022;-57
2021/07/30 07:08:23;;;;;;;6.53;2.55;;;;;;;22.15;50.66;100786.84;5013874;28;20025;-59
2021/07/30 07:10:48;;;;;;;6.35;2.72;;;;;;;22.14;50.82;100783.34;5013533;28;20033;-60
2021/07/30 07:13:16;;;;;;;5.38;2.60;;;;;;;22.13;50.65;100784.34;5013984;28;20466;-58
2021/07/30 07:15:47;;;;;;;5.32;2.42;;;;;;;22.14;50.72;100779.88;5014064;28;20426;-60
2021/07/30 07:18:12;;;;;;;7.28;2.70;;;;;;;22.11;50.32;100773.03;5014118;28;20377;-59
2021/07/30 07:20:39;;;;;;;5.13;2.58;;;;;;;22.07;50.40;100779.66;5014555;28;20030;-59
2021/07/30 07:23:04;;;;;;;8.20;2.55;;;;;;;22.06;50.38;100783.28;5015242;28;20022;-61
2021/07/30 07:25:30;;;;;;;4.35;2.20;;;;;;;22.04;50.76;100778.13;5015603;28;20113;-61
2021/07/30 07:27:55;;;;;;;4.85;2.30;;;;;;;22.05;50.96;100774.50;5016637;28;20427;-60
2021/07/30 07:30:21;;;;;;;5.00;2.28;;;;;;;22.08;50.88;100784.00;5014827;28;20465;-58
2021/07/30 07:32:47;;;;;;;8.48;3.00;;;;;;;22.09;51.09;100778.50;5016003;28;20121;-60
2021/07/30 07:35:12;;;;;;;6.50;2.67;;;;;;;22.14;51.24;100777.22;5015649;28;20073;-58
2021/07/30 07:37:37;;;;;;;7.32;2.40;;;;;;;22.16;51.17;100775.25;5014734;28;20375;-58
2021/07/30 07:40:07;;;;;;;6.30;2.67;;;;;;;22.15;50.82;100771.75;5015005;28;20033;-59
2021/07/30 07:42:33;;;;;;;6.28;2.50;;;;;;;22.16;51.24;100765.47;5014237;28;20048;-61
2021/07/30 07:45:00;;;;;;;5.43;2.33;;;;;;;22.13;51.01;100762.28;5013801;28;20459;-59
2021/07/30 07:47:26;;;;;;;9.35;2.55;;;;;;;22.18;50.97;100762.66;5015338;28;20101;-58
2021/07/30 07:49:51;;;;;;;6.45;2.38;;;;;;;22.18;50.97;100758.19;5014197;28;20041;-59
2021/07/30 07:52:20;;;;;;;5.20;1.90;;;;;;;22.19;51.14;100767.81;5013255;28;20042;-59
2021/07/30 07:54:46;;;;;;;5.53;1.85;;;;;;;22.18;50.89;100760.00;5014548;28;20125;-58
2021/07/30 07:57:11;;;;;;;5.00;2.60;;;;;;;22.20;51.03;100760.69;5014546;28;20126;-58
2021/07/30 07:59:37;;;;;;;4.45;1.95;;;;;;;22.19;51.34;100754.56;5013320;28;20545;-58
2021/07/30 08:02:05;;;;;;;6.15;2.17;;;;;;;22.23;51.27;100761.19;5013896;28;20026;-58
2021/07/30 08:04:31;;;;;;;6.00;2.30;;;;;;;22.24;51.20;100756.75;5013754;28;20105;-59
2021/07/30 08:07:00;;;;;;;6.45;2.15;;;;;;;22.23;51.31;100753.25;5013620;28;20411;-58
2021/07/30 08:09:25;;;;;;;6.25;2.17;;;;;;;22.24;51.13;100752.25;5013421;28;20025;-58
2021/07/30 08:11:51;;;;;;;8.02;2.08;;;;;;;22.20;51.26;100742.94;5013590;28;20080;-59
2021/07/30 08:14:16;;;;;;;5.18;2.05;;;;;;;22.24;51.22;100748.78;5012833;28;20470;-58
2021/07/30 08:16:42;;;;;;;4.88;2.08;;;;;;;22.26;51.32;100738.84;5013865;28;20041;-58
2021/07/30 08:19:07;;;;;;;7.28;2.35;;;;;;;22.25;50.72;100735.31;5014142;28;20034;-57
2021/07/30 08:21:33;;;;;;;5.22;1.88;;;;;;;22.28;50.96;100732.38;5012715;28;20061;-59
2021/07/30 08:23:58;;;;;;;5.30;2.00;;;;;;;22.28;50.97;100734.19;5013364;28;20026;-59
2021/07/30 08:26:23;;;;;;;7.07;2.20;;;;;;;22.27;50.84;100727.22;5012308;28;20026;-59
2021/07/30 08:28:48;;;;;;;6.00;2.08;;;;;;;22.29;50.85;100717.28;5013531;28;20321;-62
2021/07/30 08:31:25;;;;;;;4.00;1.85;;;;;;;22.30;51.00;100724.28;5013443;28;20044;-57
2021/07/30 08:33:50;;;;;;;4.22;2.15;;;;;;;22.31;50.65;100722.47;5013283;28;20052;-63
2021/07/30 08:36:16;;;;;;;4.20;1.60;;;;;;;22.34;51.09;100722.16;5013374;28;20466;-59
2021/07/30 08:38:41;;;;;;;5.75;2.00;;;;;;;22.33;50.77;100717.84;5013154;28;20410;-60
2021/07/30 08:41:07;;;;;;;4.77;1.83;;;;;;;22.36;51.10;100717.53;5011667;28;20040;-59
2021/07/30 08:43:35;;;;;;;8.18;2.17;;;;;;;22.36;51.06;100714.88;5012652;28;20037;-60
2021/07/30 08:46:00;;;;;;;5.38;2.33;;;;;;;22.39;51.52;100712.72;5012845;28;20084;-60
2021/07/30 08:48:28;;;;;;;4.88;2.03;;;;;;;22.40;51.27;100711.75;5011668;28;20026;-60
2021/07/30 08:50:57;;;;;;;7.65;1.92;;;;;;;22.41;51.45;100705.47;5012298;28;20377;-60
2021/07/30 08:53:24;;;;;;;5.47;2.40;;;;;;;22.42;51.70;100707.13;5012398;28;20109;-60
2021/07/30 08:55:50;;;;;;;5.95;2.00;;;;;;;22.43;51.77;100714.09;5011960;28;20105;-59
2021/07/30 08:58:16;;;;;;;4.50;1.88;;;;;;;22.43;51.43;100702.63;5012504;28;20030;-59
2021/07/30 09:00:41;;;;;;;5.53;1.95;;;;;;;22.45;51.68;100703.31;5012686;28;20026;-58
2021/07/30 09:03:07;;;;;;;5.15;2.00;;;;;;;22.43;51.64;100694.66;5012396;28;20038;-59
2021/07/30 09:05:38;;;;;;;6.57;1.75;;;;;;;22.44;51.59;100696.34;5012749;28;20033;-59
2021/07/30 09:08:05;;;;;;;9.20;2.88;;;;;;;22.47;51.62;100693.38;5012509;28;20022;-59
2021/07/30 09:10:33;;;;;;;8.13;2.65;;;;;;;22.46;51.71;100695.19;5011474;28;20034;-59
2021/07/30 09:13:19;;;;;;;7.45;2.55;;;;;;;22.47;51.69;100690.72;5012621;28;20026;-61
2021/07/30 09:15:57;;;;;;;4.70;1.90;;;;;;;22.48;51.90;100691.53;5012185;28;20084;-59
2021/07/30 09:18:26;;;;;;;7.00;2.10;;;;;;;22.49;51.68;100690.56;5012355;28;20414;-60
2021/07/30 09:20:52;;;;;;;9.02;2.22;;;;;;;22.44;51.85;100673.25;5012244;28;20458;-61
2021/07/30 09:23:18;;;;;;;6.18;2.15;;;;;;;22.50;51.55;100681.63;5011640;28;20032;-63
2021/07/30 09:25:43;;;;;;;3.50;2.00;;;;;;;22.49;51.77;100672.78;5012743;28;20017;-59
2021/07/30 09:28:09;;;;;;;4.53;1.92;;;;;;;22.52;52.03;100677.78;5012269;28;20393;-59
2021/07/30 09:30:38;;;;;;;4.50;1.80;;;;;;;22.56;52.23;100681.00;5011448;28;20025;-58
2021/07/30 09:33:03;;;;;;;4.45;1.52;;;;;;;22.60;53.02;100682.31;5012045;28;20268;-57
2021/07/30 09:35:28;;;;;;;5.72;1.70;;;;;;;22.61;52.99;100666.22;5011940;28;20354;-60
2021/07/30 09:38:16;;;;;;;5.50;1.80;;;;;;;22.60;52.89;100669.03;5011144;28;20113;-58
2021/07/30 09:40:42;;;;;;;6.35;1.98;;;;;;;22.59;52.92;100657.59;5012040;28;20065;-58
2021/07/30 09:43:21;;;;;;;6.25;1.77;;;;;;;22.58;52.64;100655.09;5012097;28;20069;-59
2021/07/30 09:45:47;;;;;;;6.47;2.00;;;;;;;22.56;52.20;100641.97;5011463;28;20030;-59
2021/07/30 09:48:12;;;;;;;6.55;2.00;;;;;;;22.56;52.56;100649.94;5012420;28;20084;-59
2021/07/30 09:50:37;;;;;;;3.60;1.70;;;;;;;22.57;52.40;100646.31;5011892;28;20026;-55
2021/07/30 09:53:06;;;;;;;6.40;2.10;;;;;;;22.58;52.73;100644.47;5013387;28;20068;-57
2021/07/30 09:55:34;;;;;;;4.53;2.25;;;;;;;22.58;51.82;100636.50;5016086;28;20033;-58
2021/07/30 09:58:01;;;;;;;8.93;2.10;;;;;;;22.60;52.35;100639.81;5015173;28;20110;-57
2021/07/30 10:00:29;;;;;;;5.25;1.90;;;;;;;22.59;52.38;100644.31;5015492;28;20033;-59
2021/07/30 10:03:02;;;;;;;5.13;2.00;;;;;;;22.60;52.68;100630.03;5015625;28;20022;-58
2021/07/30 10:05:29;;;;;;;4.22;1.80;;;;;;;22.60;52.33;100634.50;5014671;28;20037;-59
2021/07/30 10:07:56;;;;;;;5.07;2.17;;;;;;;22.61;52.20;100633.53;5015601;28;20030;-59
2021/07/30 10:10:31;;;;;;;6.00;2.05;;;;;;;22.59;52.30;100617.75;5015045;28;20029;-58
2021/07/30 10:13:02;;;;;;;5.38;1.92;;;;;;;22.64;52.39;100622.59;5015209;28;20053;-57
2021/07/30 10:15:33;;;;;;;5.97;2.10;;;;;;;22.65;52.35;100610.97;5015185;28;20025;-59
2021/07/30 10:18:02;;;;;;;6.40;2.10;;;;;;;22.65;52.38;100605.66;5015368;28;20030;-58
2021/07/30 10:20:28;;;;;;;3.95;1.90;;;;;;;22.67;52.35;100603.69;5014192;28;20490;-59
2021/07/30 10:23:14;;;;;;;5.68;1.77;;;;;;;22.68;52.33;100610.63;5015151;28;20177;-58
2021/07/30 10:25:51;;;;;;;5.03;1.98;;;;;;;22.70;52.12;100606.03;5015426;28;20022;-58
2021/07/30 10:28:20;;;;;;;5.18;2.00;;;;;;;22.69;52.04;100587.59;5014207;28;20026;-58
2021/07/30 10:30:56;;;;;;;4.55;1.80;;;;;;;22.71;52.05;100596.22;5015188;28;20044;-58
2021/07/30 10:33:30;;;;;;;4.40;1.75;;;;;;;22.73;52.14;100592.41;5013759;28;20112;-57
2021/07/30 10:35:56;;;;;;;3.85;1.90;;;;;;;22.71;52.14;100597.03;5015085;28;20429;-56
2021/07/30 10:38:21;;;;;;;4.03;1.73;;;;;;;22.73;52.12;100603.03;5014706;28;20022;-58
2021/07/30 10:41:05;;;;;;;4.90;1.85;;;;;;;22.72;51.87;100582.78;5014125;28;20068;-57
2021/07/30 10:43:33;;;;;;;5.63;2.10;;;;;;;22.73;52.18;100591.56;5014764;28;20369;-56
2021/07/30 10:46:04;;;;;;;3.08;1.75;;;;;;;22.73;52.05;100589.75;5014740;28;20109;-59
2021/07/30 10:48:43;;;;;;;4.50;1.90;;;;;;;22.73;51.81;100592.41;5013819;28;20030;-58
2021/07/30 10:51:26;;;;;;;3.85;1.80;;;;;;;22.75;52.17;100584.28;5014489;28;20483;-58
2021/07/30 10:54:05;;;;;;;4.18;1.90;;;;;;;22.75;52.12;100581.63;5014637;28;20030;-58
2021/07/30 10:56:31;;;;;;;4.30;2.13;;;;;;;22.76;52.24;100565.50;5014269;28;20045;-58
2021/07/30 10:58:57;;;;;;;4.97;2.03;;;;;;;22.77;51.85;100561.03;5014510;28;20062;-58
2021/07/30 11:01:28;;;;;;;5.13;2.40;;;;;;;22.78;51.96;100560.88;5013780;28;20029;-59
2021/07/30 11:03:53;;;;;;;5.93;2.13;;;;;;;22.77;51.82;100556.56;5013781;28;20066;-57
2021/07/30 11:06:21;;;;;;;7.00;2.33;;;;;;;22.77;51.69;100550.41;5014336;28;20091;-57
2021/07/30 11:09:01;;;;;;;4.28;2.13;;;;;;;22.76;51.89;100557.53;5013596;28;20053;-57
2021/07/30 11:11:49;;;;;;;6.18;2.10;;;;;;;22.76;51.72;100552.22;5014039;28;20101;-59
2021/07/30 11:14:35;;;;;;;4.60;2.00;;;;;;;22.77;52.16;100553.06;5014169;28;20389;-58
2021/07/30 11:17:03;;;;;;;5.63;2.05;;;;;;;22.78;51.68;100547.59;5013496;28;20511;-58
2021/07/30 11:19:35;;;;;;;3.47;2.00;;;;;;;22.78;51.97;100560.88;5013851;28;20548;-58
2021/07/30 11:22:05;;;;;;;5.30;2.20;;;;;;;22.79;51.22;100559.03;5014414;28;20083;-58
2021/07/30 11:24:39;;;;;;;5.57;2.20;;;;;;;22.81;51.28;100559.72;5013325;28;20022;-58
2021/07/30 11:27:04;;;;;;;4.00;2.13;;;;;;;22.75;51.55;100553.22;5013769;28;20434;-57